Terminal Aerodrome Forecast
Issued by NWS Charleston, WV

Current Version | Previous Version | Graphics & Text | Print | Product List | Glossary On
Versions: 1 2 3 4 5 6 7 8 9 10 11 12 13 14 15 16 17 18 19 20 21 22 23 24 25 26 27 28
000
FTUS41 KRLX 262300 RRA
TAFHTS
TAF
KHTS 262344Z 2700/2724 VRB03KT P6SM SCT100 SCT250
     FM270900 21004KT P6SM VCTS SCT040CB BKN060
     FM271100 22005KT 5SM TSRA BR BKN040CB
     FM271300 22006KT P6SM SCT040 BKN060
     FM271600 19008G14KT P6SM SCT035
     FM271800 19010G18KT P6SM +TSRA SCT045CB BKN100
     FM272200 21010G18KT P6SM SCT050=

USA.gov is the U.S. government's official web portal to all federal, state and local government web resources and services.